الصفحة الرئيسية
METAR-TAF:

METAR-TAF

مطار :

Mar del Plata, الأرجنتين

دائرة عرض: 37-56S, خط طول: 057-35W, ارتفاع: 18 متر

مراقبة الطقس الحالي

تاريخ ووقت الإصدار 41 دقيقة قبل الساعة 02:00UTC
ريح 8 عقدة من الغرب/الشمال الغربي
درجة الحرارة 5°درجة مئوية
الرطوبة 65%
ضغط 1030 hPa
الرؤية 10 كم أو أكثر
الغيوم لا تقل 1500 م ولا وجود لمزنة ركامية السحاب الأسود

METAR: SAZM 140200Z 30008KT CAVOK 05/M01 Q1030

زمن: 23:41 (02:41 UTC)

توقعات

تاريخ ووقت الإصدار 3ساعات و 41 دقيقة قبل الساعة 23:00UTC
التوقعات صالحة من14 الساعة 00 UTC إلى 14 الساعة 24 UTC
ريح 5 عقدة من الشمال الغربي
الرؤية 10 كم أو أكثر
الغيوم لا تقل 1500 م ولا وجود لمزنة ركامية السحاب الأسود

TAF: SAZM 132300Z 1400/1424 32005KT CAVOK TX15/1418Z TNM02/1410Z

أرصاد الطقس والتوقعات من أكثر من 4000 مطار (تقارير الطقس للمطار METAR والتنبؤ بالطقس بالمطارTAF).

المحطات المتاحة هي النقط الصفراء والحمراء على الخريطة.

حرك المؤشر فوق النقطة لمعرفة اسم المحطة.

ثم انقر لمعرفة أرصاد وتوقعات الطقس.

لتغيير الخارطة: اضغط على الأزرار الخضراء مع رمز الصليب الأسود للتكبير. على الزر الأخضر مع شرطة للتصغير، أو على الأسهم الخضراء للخرائط المجاورة.


METAR-TAF: